sensor_id;sensor_type;location;lat;lon;timestamp;P1;durP1;ratioP1;P2;durP2;ratioP2
17398;SDS011;8817;48.170;8.592;2023-02-28T00:01:24;4.23;;;4.13;;
17398;SDS011;8817;48.170;8.592;2023-02-28T00:03:51;4.87;;;4.63;;
17398;SDS011;8817;48.170;8.592;2023-02-28T00:06:18;4.70;;;4.50;;
17398;SDS011;8817;48.170;8.592;2023-02-28T00:08:45;4.13;;;4.03;;
17398;SDS011;8817;48.170;8.592;2023-02-28T00:11:13;4.53;;;4.33;;
17398;SDS011;8817;48.170;8.592;2023-02-28T00:13:44;4.30;;;4.17;;
17398;SDS011;8817;48.170;8.592;2023-02-28T00:16:12;4.50;;;4.30;;
17398;SDS011;8817;48.170;8.592;2023-02-28T00:18:41;4.53;;;4.23;;
17398;SDS011;8817;48.170;8.592;2023-02-28T00:21:08;5.53;;;4.40;;
17398;SDS011;8817;48.170;8.592;2023-02-28T00:23:35;4.20;;;4.10;;
17398;SDS011;8817;48.170;8.592;2023-02-28T00:26:03;4.93;;;4.63;;
17398;SDS011;8817;48.170;8.592;2023-02-28T00:28:30;4.57;;;4.33;;
17398;SDS011;8817;48.170;8.592;2023-02-28T00:30:59;4.93;;;4.60;;
17398;SDS011;8817;48.170;8.592;2023-02-28T00:33:26;5.20;;;4.30;;
17398;SDS011;8817;48.170;8.592;2023-02-28T00:36:00;5.03;;;4.63;;
17398;SDS011;8817;48.170;8.592;2023-02-28T00:38:28;4.30;;;4.20;;
17398;SDS011;8817;48.170;8.592;2023-02-28T00:40:55;4.30;;;4.10;;
17398;SDS011;8817;48.170;8.592;2023-02-28T00:43:23;4.43;;;4.10;;
17398;SDS011;8817;48.170;8.592;2023-02-28T00:45:50;4.10;;;3.90;;
17398;SDS011;8817;48.170;8.592;2023-02-28T00:48:18;4.47;;;4.27;;
17398;SDS011;8817;48.170;8.592;2023-02-28T00:50:47;4.30;;;4.20;;
17398;SDS011;8817;48.170;8.592;2023-02-28T00:53:15;4.67;;;4.30;;
17398;SDS011;8817;48.170;8.592;2023-02-28T00:55:42;4.23;;;4.03;;
17398;SDS011;8817;48.170;8.592;2023-02-28T00:58:09;4.00;;;3.90;;
17398;SDS011;8817;48.170;8.592;2023-02-28T01:00:36;4.80;;;4.10;;
17398;SDS011;8817;48.170;8.592;2023-02-28T01:03:04;4.60;;;4.40;;
17398;SDS011;8817;48.170;8.592;2023-02-28T01:05:33;4.50;;;4.30;;
17398;SDS011;8817;48.170;8.592;2023-02-28T01:08:00;4.37;;;4.07;;
17398;SDS011;8817;48.170;8.592;2023-02-28T01:10:27;4.20;;;4.10;;
17398;SDS011;8817;48.170;8.592;2023-02-28T01:12:56;4.47;;;4.17;;
17398;SDS011;8817;48.170;8.592;2023-02-28T01:15:23;4.33;;;4.03;;
17398;SDS011;8817;48.170;8.592;2023-02-28T01:17:50;4.17;;;4.07;;
17398;SDS011;8817;48.170;8.592;2023-02-28T01:20:17;4.27;;;4.17;;
17398;SDS011;8817;48.170;8.592;2023-02-28T01:22:45;4.30;;;4.10;;
17398;SDS011;8817;48.170;8.592;2023-02-28T01:25:12;4.50;;;4.30;;
17398;SDS011;8817;48.170;8.592;2023-02-28T01:27:40;4.43;;;4.23;;
17398;SDS011;8817;48.170;8.592;2023-02-28T01:30:07;4.77;;;4.50;;
17398;SDS011;8817;48.170;8.592;2023-02-28T01:32:35;5.00;;;4.60;;
17398;SDS011;8817;48.170;8.592;2023-02-28T01:35:02;4.53;;;4.33;;
17398;SDS011;8817;48.170;8.592;2023-02-28T01:37:29;4.80;;;4.40;;
17398;SDS011;8817;48.170;8.592;2023-02-28T01:39:57;4.67;;;4.40;;
17398;SDS011;8817;48.170;8.592;2023-02-28T01:42:24;4.57;;;4.43;;
17398;SDS011;8817;48.170;8.592;2023-02-28T01:44:59;4.40;;;4.30;;
17398;SDS011;8817;48.170;8.592;2023-02-28T01:47:29;4.40;;;4.20;;
17398;SDS011;8817;48.170;8.592;2023-02-28T01:49:59;5.27;;;4.50;;
17398;SDS011;8817;48.170;8.592;2023-02-28T01:52:28;4.30;;;4.00;;
17398;SDS011;8817;48.170;8.592;2023-02-28T01:54:56;4.33;;;4.17;;
17398;SDS011;8817;48.170;8.592;2023-02-28T01:57:28;4.20;;;4.00;;
17398;SDS011;8817;48.170;8.592;2023-02-28T02:00:04;4.50;;;4.23;;
17398;SDS011;8817;48.170;8.592;2023-02-28T02:02:34;4.93;;;3.90;;
17398;SDS011;8817;48.170;8.592;2023-02-28T02:05:04;4.33;;;4.13;;
17398;SDS011;8817;48.170;8.592;2023-02-28T02:07:34;4.20;;;4.00;;
17398;SDS011;8817;48.170;8.592;2023-02-28T02:10:05;4.20;;;4.10;;
17398;SDS011;8817;48.170;8.592;2023-02-28T02:12:56;3.87;;;3.77;;
17398;SDS011;8817;48.170;8.592;2023-02-28T02:15:38;4.97;;;4.57;;
17398;SDS011;8817;48.170;8.592;2023-02-28T02:18:09;4.30;;;4.20;;
17398;SDS011;8817;48.170;8.592;2023-02-28T02:20:51;4.07;;;3.97;;
17398;SDS011;8817;48.170;8.592;2023-02-28T02:27:05;3.97;;;3.87;;
17398;SDS011;8817;48.170;8.592;2023-02-28T02:35:30;4.63;;;4.43;;
17398;SDS011;8817;48.170;8.592;2023-02-28T02:38:06;5.50;;;4.67;;
17398;SDS011;8817;48.170;8.592;2023-02-28T02:40:38;4.60;;;4.40;;
17398;SDS011;8817;48.170;8.592;2023-02-28T02:43:11;4.77;;;4.57;;
17398;SDS011;8817;48.170;8.592;2023-02-28T02:45:44;4.07;;;3.87;;
17398;SDS011;8817;48.170;8.592;2023-02-28T02:48:16;4.37;;;4.23;;
17398;SDS011;8817;48.170;8.592;2023-02-28T02:50:50;4.60;;;4.43;;
17398;SDS011;8817;48.170;8.592;2023-02-28T02:53:21;4.63;;;4.43;;
17398;SDS011;8817;48.170;8.592;2023-02-28T02:55:53;4.30;;;4.20;;
17398;SDS011;8817;48.170;8.592;2023-02-28T02:58:22;4.57;;;4.37;;
17398;SDS011;8817;48.170;8.592;2023-02-28T03:00:52;7.27;;;4.50;;
17398;SDS011;8817;48.170;8.592;2023-02-28T03:03:21;4.13;;;4.03;;
17398;SDS011;8817;48.170;8.592;2023-02-28T03:05:55;4.07;;;3.87;;
17398;SDS011;8817;48.170;8.592;2023-02-28T03:08:24;4.10;;;3.97;;
17398;SDS011;8817;48.170;8.592;2023-02-28T03:10:52;4.60;;;4.40;;
17398;SDS011;8817;48.170;8.592;2023-02-28T03:13:36;4.50;;;4.27;;
17398;SDS011;8817;48.170;8.592;2023-02-28T03:16:21;4.13;;;4.00;;
17398;SDS011;8817;48.170;8.592;2023-02-28T03:22:21;4.60;;;4.50;;
17398;SDS011;8817;48.170;8.592;2023-02-28T03:25:00;4.20;;;4.10;;
17398;SDS011;8817;48.170;8.592;2023-02-28T03:27:34;4.57;;;4.37;;
17398;SDS011;8817;48.170;8.592;2023-02-28T03:30:06;7.23;;;4.33;;
17398;SDS011;8817;48.170;8.592;2023-02-28T03:32:38;4.70;;;4.50;;
17398;SDS011;8817;48.170;8.592;2023-02-28T03:35:14;4.17;;;4.03;;
17398;SDS011;8817;48.170;8.592;2023-02-28T03:37:49;4.70;;;4.43;;
17398;SDS011;8817;48.170;8.592;2023-02-28T03:40:19;4.57;;;4.37;;
17398;SDS011;8817;48.170;8.592;2023-02-28T03:42:49;4.73;;;4.47;;
17398;SDS011;8817;48.170;8.592;2023-02-28T03:45:23;4.40;;;4.30;;
17398;SDS011;8817;48.170;8.592;2023-02-28T03:47:53;4.50;;;4.30;;
17398;SDS011;8817;48.170;8.592;2023-02-28T03:50:24;4.33;;;4.23;;
17398;SDS011;8817;48.170;8.592;2023-02-28T03:52:56;4.87;;;4.60;;
17398;SDS011;8817;48.170;8.592;2023-02-28T03:55:30;4.30;;;4.20;;
17398;SDS011;8817;48.170;8.592;2023-02-28T03:58:05;5.20;;;4.80;;
17398;SDS011;8817;48.170;8.592;2023-02-28T04:00:39;4.80;;;4.50;;
17398;SDS011;8817;48.170;8.592;2023-02-28T04:03:11;4.87;;;4.70;;
17398;SDS011;8817;48.170;8.592;2023-02-28T04:05:45;4.80;;;4.57;;
17398;SDS011;8817;48.170;8.592;2023-02-28T04:08:17;4.47;;;4.37;;
17398;SDS011;8817;48.170;8.592;2023-02-28T04:10:44;5.63;;;5.13;;
17398;SDS011;8817;48.170;8.592;2023-02-28T04:13:14;5.27;;;4.87;;
17398;SDS011;8817;48.170;8.592;2023-02-28T04:15:41;4.60;;;4.40;;
17398;SDS011;8817;48.170;8.592;2023-02-28T04:18:08;4.83;;;4.53;;
17398;SDS011;8817;48.170;8.592;2023-02-28T04:20:35;4.63;;;4.47;;
17398;SDS011;8817;48.170;8.592;2023-02-28T04:23:02;5.60;;;4.73;;
17398;SDS011;8817;48.170;8.592;2023-02-28T04:25:30;4.87;;;4.40;;
17398;SDS011;8817;48.170;8.592;2023-02-28T04:27:57;5.23;;;4.93;;
17398;SDS011;8817;48.170;8.592;2023-02-28T04:30:24;4.80;;;4.60;;
17398;SDS011;8817;48.170;8.592;2023-02-28T04:32:51;5.97;;;5.50;;
17398;SDS011;8817;48.170;8.592;2023-02-28T04:35:18;4.97;;;4.77;;
17398;SDS011;8817;48.170;8.592;2023-02-28T04:37:45;4.67;;;4.50;;
17398;SDS011;8817;48.170;8.592;2023-02-28T04:40:11;4.87;;;4.47;;
17398;SDS011;8817;48.170;8.592;2023-02-28T04:42:40;4.33;;;4.20;;
17398;SDS011;8817;48.170;8.592;2023-02-28T04:45:07;4.93;;;4.67;;
17398;SDS011;8817;48.170;8.592;2023-02-28T04:47:36;4.93;;;4.70;;
17398;SDS011;8817;48.170;8.592;2023-02-28T04:50:03;4.47;;;4.37;;
17398;SDS011;8817;48.170;8.592;2023-02-28T04:52:30;4.53;;;4.40;;
17398;SDS011;8817;48.170;8.592;2023-02-28T04:54:58;5.23;;;4.93;;
17398;SDS011;8817;48.170;8.592;2023-02-28T04:57:25;5.37;;;5.00;;
17398;SDS011;8817;48.170;8.592;2023-02-28T04:59:53;4.60;;;4.50;;
17398;SDS011;8817;48.170;8.592;2023-02-28T05:02:20;4.63;;;4.53;;
17398;SDS011;8817;48.170;8.592;2023-02-28T05:04:48;5.20;;;5.00;;
17398;SDS011;8817;48.170;8.592;2023-02-28T05:07:15;5.73;;;5.17;;
17398;SDS011;8817;48.170;8.592;2023-02-28T05:09:42;4.47;;;4.37;;
17398;SDS011;8817;48.170;8.592;2023-02-28T05:12:09;4.63;;;4.43;;
17398;SDS011;8817;48.170;8.592;2023-02-28T05:14:36;4.80;;;4.60;;
17398;SDS011;8817;48.170;8.592;2023-02-28T05:17:04;5.00;;;4.80;;
17398;SDS011;8817;48.170;8.592;2023-02-28T05:19:31;4.70;;;4.60;;
17398;SDS011;8817;48.170;8.592;2023-02-28T05:21:58;4.90;;;4.60;;
17398;SDS011;8817;48.170;8.592;2023-02-28T05:24:25;5.00;;;4.87;;
17398;SDS011;8817;48.170;8.592;2023-02-28T05:26:52;5.50;;;5.30;;
17398;SDS011;8817;48.170;8.592;2023-02-28T05:29:20;4.90;;;4.77;;
17398;SDS011;8817;48.170;8.592;2023-02-28T05:31:47;5.20;;;4.90;;
17398;SDS011;8817;48.170;8.592;2023-02-28T05:34:15;5.83;;;5.43;;
17398;SDS011;8817;48.170;8.592;2023-02-28T05:36:42;4.70;;;4.60;;
17398;SDS011;8817;48.170;8.592;2023-02-28T05:39:09;4.87;;;4.67;;
17398;SDS011;8817;48.170;8.592;2023-02-28T05:41:38;4.80;;;4.60;;
17398;SDS011;8817;48.170;8.592;2023-02-28T05:44:06;5.87;;;5.53;;
17398;SDS011;8817;48.170;8.592;2023-02-28T05:46:33;5.63;;;5.23;;
17398;SDS011;8817;48.170;8.592;2023-02-28T05:49:00;5.10;;;4.90;;
17398;SDS011;8817;48.170;8.592;2023-02-28T05:51:29;5.10;;;4.90;;
17398;SDS011;8817;48.170;8.592;2023-02-28T05:53:58;5.47;;;5.17;;
17398;SDS011;8817;48.170;8.592;2023-02-28T05:56:26;6.10;;;5.70;;
17398;SDS011;8817;48.170;8.592;2023-02-28T05:58:53;5.50;;;5.27;;
17398;SDS011;8817;48.170;8.592;2023-02-28T06:01:21;5.23;;;4.97;;
17398;SDS011;8817;48.170;8.592;2023-02-28T06:03:50;5.53;;;5.30;;
17398;SDS011;8817;48.170;8.592;2023-02-28T06:06:17;5.43;;;5.10;;
17398;SDS011;8817;48.170;8.592;2023-02-28T06:08:45;4.93;;;4.83;;
17398;SDS011;8817;48.170;8.592;2023-02-28T06:11:13;6.23;;;5.63;;
17398;SDS011;8817;48.170;8.592;2023-02-28T06:13:40;8.60;;;5.07;;
17398;SDS011;8817;48.170;8.592;2023-02-28T06:16:07;5.80;;;5.43;;
17398;SDS011;8817;48.170;8.592;2023-02-28T06:18:36;5.97;;;5.67;;
17398;SDS011;8817;48.170;8.592;2023-02-28T06:21:03;5.43;;;5.23;;
17398;SDS011;8817;48.170;8.592;2023-02-28T06:23:30;5.60;;;5.30;;
17398;SDS011;8817;48.170;8.592;2023-02-28T06:25:59;5.17;;;5.07;;
17398;SDS011;8817;48.170;8.592;2023-02-28T06:28:25;5.93;;;5.63;;
17398;SDS011;8817;48.170;8.592;2023-02-28T06:30:52;5.20;;;5.00;;
17398;SDS011;8817;48.170;8.592;2023-02-28T06:33:19;5.50;;;5.20;;
17398;SDS011;8817;48.170;8.592;2023-02-28T06:35:46;5.43;;;5.13;;
17398;SDS011;8817;48.170;8.592;2023-02-28T06:38:14;5.63;;;5.33;;
17398;SDS011;8817;48.170;8.592;2023-02-28T06:40:40;6.00;;;5.50;;
17398;SDS011;8817;48.170;8.592;2023-02-28T06:43:10;6.63;;;6.13;;
17398;SDS011;8817;48.170;8.592;2023-02-28T06:45:41;6.10;;;5.77;;
17398;SDS011;8817;48.170;8.592;2023-02-28T06:48:08;6.30;;;6.00;;
17398;SDS011;8817;48.170;8.592;2023-02-28T06:50:35;5.97;;;5.57;;
17398;SDS011;8817;48.170;8.592;2023-02-28T06:53:03;6.57;;;6.10;;
17398;SDS011;8817;48.170;8.592;2023-02-28T06:55:30;5.60;;;5.30;;
17398;SDS011;8817;48.170;8.592;2023-02-28T06:57:57;6.17;;;5.77;;
17398;SDS011;8817;48.170;8.592;2023-02-28T07:00:25;6.13;;;5.63;;
17398;SDS011;8817;48.170;8.592;2023-02-28T07:02:52;5.40;;;5.20;;
17398;SDS011;8817;48.170;8.592;2023-02-28T07:05:20;5.93;;;5.63;;
17398;SDS011;8817;48.170;8.592;2023-02-28T07:07:47;6.43;;;6.07;;
17398;SDS011;8817;48.170;8.592;2023-02-28T07:10:14;5.97;;;5.57;;
17398;SDS011;8817;48.170;8.592;2023-02-28T07:12:42;6.07;;;5.57;;
17398;SDS011;8817;48.170;8.592;2023-02-28T07:15:09;6.10;;;5.80;;
17398;SDS011;8817;48.170;8.592;2023-02-28T07:17:38;6.03;;;5.73;;
17398;SDS011;8817;48.170;8.592;2023-02-28T07:20:05;5.70;;;5.50;;
17398;SDS011;8817;48.170;8.592;2023-02-28T07:22:33;6.27;;;5.93;;
17398;SDS011;8817;48.170;8.592;2023-02-28T07:25:00;5.53;;;5.23;;
17398;SDS011;8817;48.170;8.592;2023-02-28T07:27:27;5.90;;;5.60;;
17398;SDS011;8817;48.170;8.592;2023-02-28T07:29:54;5.73;;;5.53;;
17398;SDS011;8817;48.170;8.592;2023-02-28T07:32:20;5.67;;;5.37;;
17398;SDS011;8817;48.170;8.592;2023-02-28T07:34:49;6.00;;;5.70;;
17398;SDS011;8817;48.170;8.592;2023-02-28T07:37:15;6.33;;;5.90;;
17398;SDS011;8817;48.170;8.592;2023-02-28T07:39:42;6.53;;;6.07;;
17398;SDS011;8817;48.170;8.592;2023-02-28T07:42:09;5.93;;;5.53;;
17398;SDS011;8817;48.170;8.592;2023-02-28T07:44:37;5.87;;;5.57;;
17398;SDS011;8817;48.170;8.592;2023-02-28T07:47:05;11.20;;;5.77;;
17398;SDS011;8817;48.170;8.592;2023-02-28T07:49:33;6.20;;;5.90;;
17398;SDS011;8817;48.170;8.592;2023-02-28T07:52:02;6.20;;;5.80;;
17398;SDS011;8817;48.170;8.592;2023-02-28T07:54:30;6.07;;;5.57;;
17398;SDS011;8817;48.170;8.592;2023-02-28T07:56:57;6.80;;;6.00;;
17398;SDS011;8817;48.170;8.592;2023-02-28T07:59:24;6.13;;;5.63;;
17398;SDS011;8817;48.170;8.592;2023-02-28T08:01:51;5.50;;;5.23;;
17398;SDS011;8817;48.170;8.592;2023-02-28T08:04:18;5.90;;;5.57;;
17398;SDS011;8817;48.170;8.592;2023-02-28T08:06:45;6.77;;;6.17;;
17398;SDS011;8817;48.170;8.592;2023-02-28T08:09:14;5.27;;;5.13;;
17398;SDS011;8817;48.170;8.592;2023-02-28T08:11:40;5.87;;;5.57;;
17398;SDS011;8817;48.170;8.592;2023-02-28T08:14:07;6.97;;;5.87;;
17398;SDS011;8817;48.170;8.592;2023-02-28T08:16:34;6.27;;;5.93;;
17398;SDS011;8817;48.170;8.592;2023-02-28T08:19:02;6.20;;;5.80;;
17398;SDS011;8817;48.170;8.592;2023-02-28T08:21:29;6.00;;;5.60;;
17398;SDS011;8817;48.170;8.592;2023-02-28T08:23:56;6.17;;;5.87;;
17398;SDS011;8817;48.170;8.592;2023-02-28T08:26:24;5.43;;;5.13;;
17398;SDS011;8817;48.170;8.592;2023-02-28T08:28:51;6.30;;;5.90;;
17398;SDS011;8817;48.170;8.592;2023-02-28T08:31:18;6.33;;;5.63;;
17398;SDS011;8817;48.170;8.592;2023-02-28T08:33:45;6.60;;;6.10;;
17398;SDS011;8817;48.170;8.592;2023-02-28T08:36:13;6.27;;;5.87;;
17398;SDS011;8817;48.170;8.592;2023-02-28T08:38:41;6.37;;;5.93;;
17398;SDS011;8817;48.170;8.592;2023-02-28T08:41:09;6.47;;;5.87;;
17398;SDS011;8817;48.170;8.592;2023-02-28T08:43:38;6.23;;;5.73;;
17398;SDS011;8817;48.170;8.592;2023-02-28T08:46:06;6.07;;;5.77;;
17398;SDS011;8817;48.170;8.592;2023-02-28T08:48:34;5.93;;;5.53;;
17398;SDS011;8817;48.170;8.592;2023-02-28T08:51:04;6.00;;;5.60;;
17398;SDS011;8817;48.170;8.592;2023-02-28T08:53:34;7.60;;;5.70;;
17398;SDS011;8817;48.170;8.592;2023-02-28T08:56:01;6.73;;;6.07;;
17398;SDS011;8817;48.170;8.592;2023-02-28T08:58:30;6.10;;;5.70;;
17398;SDS011;8817;48.170;8.592;2023-02-28T09:00:59;6.40;;;5.83;;
17398;SDS011;8817;48.170;8.592;2023-02-28T09:03:26;6.40;;;5.80;;
17398;SDS011;8817;48.170;8.592;2023-02-28T09:05:56;6.97;;;5.67;;
17398;SDS011;8817;48.170;8.592;2023-02-28T09:08:26;6.60;;;6.00;;
17398;SDS011;8817;48.170;8.592;2023-02-28T09:10:56;5.53;;;5.23;;
17398;SDS011;8817;48.170;8.592;2023-02-28T09:13:23;6.47;;;5.80;;
17398;SDS011;8817;48.170;8.592;2023-02-28T09:15:50;6.77;;;6.10;;
17398;SDS011;8817;48.170;8.592;2023-02-28T09:18:19;6.40;;;5.90;;
17398;SDS011;8817;48.170;8.592;2023-02-28T09:20:46;7.00;;;6.40;;
17398;SDS011;8817;48.170;8.592;2023-02-28T09:23:13;6.33;;;5.80;;
17398;SDS011;8817;48.170;8.592;2023-02-28T09:25:45;6.20;;;5.70;;
17398;SDS011;8817;48.170;8.592;2023-02-28T09:28:13;6.67;;;6.07;;
17398;SDS011;8817;48.170;8.592;2023-02-28T09:30:41;5.80;;;5.40;;
17398;SDS011;8817;48.170;8.592;2023-02-28T09:33:10;6.73;;;6.20;;
17398;SDS011;8817;48.170;8.592;2023-02-28T09:35:38;5.87;;;5.47;;
17398;SDS011;8817;48.170;8.592;2023-02-28T09:38:05;6.20;;;5.70;;
17398;SDS011;8817;48.170;8.592;2023-02-28T09:40:35;5.77;;;5.47;;
17398;SDS011;8817;48.170;8.592;2023-02-28T09:43:03;5.83;;;5.23;;
17398;SDS011;8817;48.170;8.592;2023-02-28T09:45:33;5.97;;;5.47;;
17398;SDS011;8817;48.170;8.592;2023-02-28T09:48:03;6.50;;;6.00;;
17398;SDS011;8817;48.170;8.592;2023-02-28T09:50:37;6.97;;;6.37;;
17398;SDS011;8817;48.170;8.592;2023-02-28T09:53:10;6.77;;;6.03;;
17398;SDS011;8817;48.170;8.592;2023-02-28T09:55:46;7.50;;;6.80;;
17398;SDS011;8817;48.170;8.592;2023-02-28T09:58:16;6.60;;;6.00;;
17398;SDS011;8817;48.170;8.592;2023-02-28T10:00:46;8.13;;;6.40;;
17398;SDS011;8817;48.170;8.592;2023-02-28T10:03:27;6.40;;;5.90;;
17398;SDS011;8817;48.170;8.592;2023-02-28T10:06:01;6.23;;;5.63;;
17398;SDS011;8817;48.170;8.592;2023-02-28T10:08:36;6.47;;;5.93;;
17398;SDS011;8817;48.170;8.592;2023-02-28T10:11:11;6.70;;;6.13;;
17398;SDS011;8817;48.170;8.592;2023-02-28T10:13:45;7.40;;;6.07;;
17398;SDS011;8817;48.170;8.592;2023-02-28T10:16:20;6.77;;;6.17;;
17398;SDS011;8817;48.170;8.592;2023-02-28T10:18:52;7.17;;;6.23;;
17398;SDS011;8817;48.170;8.592;2023-02-28T10:21:25;6.60;;;6.10;;
17398;SDS011;8817;48.170;8.592;2023-02-28T10:23:56;7.70;;;6.17;;
17398;SDS011;8817;48.170;8.592;2023-02-28T10:26:29;6.20;;;5.70;;
17398;SDS011;8817;48.170;8.592;2023-02-28T10:28:58;7.03;;;6.43;;
17398;SDS011;8817;48.170;8.592;2023-02-28T10:31:27;5.93;;;5.53;;
17398;SDS011;8817;48.170;8.592;2023-02-28T10:33:55;7.47;;;6.80;;
17398;SDS011;8817;48.170;8.592;2023-02-28T10:36:22;8.93;;;7.17;;
17398;SDS011;8817;48.170;8.592;2023-02-28T10:38:50;7.57;;;6.77;;
17398;SDS011;8817;48.170;8.592;2023-02-28T10:41:26;7.17;;;6.47;;
17398;SDS011;8817;48.170;8.592;2023-02-28T10:44:12;9.07;;;7.37;;
17398;SDS011;8817;48.170;8.592;2023-02-28T10:46:41;9.30;;;6.80;;
17398;SDS011;8817;48.170;8.592;2023-02-28T10:49:13;8.67;;;6.83;;
17398;SDS011;8817;48.170;8.592;2023-02-28T10:51:43;7.43;;;6.47;;
17398;SDS011;8817;48.170;8.592;2023-02-28T10:54:20;7.00;;;6.37;;
17398;SDS011;8817;48.170;8.592;2023-02-28T10:57:07;7.43;;;6.77;;
17398;SDS011;8817;48.170;8.592;2023-02-28T10:59:40;11.47;;;7.63;;
17398;SDS011;8817;48.170;8.592;2023-02-28T11:04:57;6.93;;;6.30;;
17398;SDS011;8817;48.170;8.592;2023-02-28T11:07:25;6.90;;;6.27;;
17398;SDS011;8817;48.170;8.592;2023-02-28T11:09:54;6.73;;;6.10;;
17398;SDS011;8817;48.170;8.592;2023-02-28T11:12:23;8.50;;;6.93;;
17398;SDS011;8817;48.170;8.592;2023-02-28T11:14:53;8.80;;;6.73;;
17398;SDS011;8817;48.170;8.592;2023-02-28T11:17:23;7.47;;;6.77;;
17398;SDS011;8817;48.170;8.592;2023-02-28T11:19:52;24.43;;;6.73;;
17398;SDS011;8817;48.170;8.592;2023-02-28T11:22:21;8.03;;;6.47;;
17398;SDS011;8817;48.170;8.592;2023-02-28T11:24:55;8.57;;;6.20;;
17398;SDS011;8817;48.170;8.592;2023-02-28T11:27:40;6.90;;;6.17;;
17398;SDS011;8817;48.170;8.592;2023-02-28T11:32:55;8.60;;;6.13;;
17398;SDS011;8817;48.170;8.592;2023-02-28T11:35:23;7.00;;;6.37;;
17398;SDS011;8817;48.170;8.592;2023-02-28T11:37:52;8.43;;;6.73;;
17398;SDS011;8817;48.170;8.592;2023-02-28T11:40:24;7.00;;;6.40;;
17398;SDS011;8817;48.170;8.592;2023-02-28T11:42:59;6.77;;;6.10;;
17398;SDS011;8817;48.170;8.592;2023-02-28T11:45:40;7.20;;;6.37;;
17398;SDS011;8817;48.170;8.592;2023-02-28T11:48:18;11.90;;;7.37;;
17398;SDS011;8817;48.170;8.592;2023-02-28T11:53:41;14.07;;;7.50;;
17398;SDS011;8817;48.170;8.592;2023-02-28T11:56:18;6.70;;;6.10;;
17398;SDS011;8817;48.170;8.592;2023-02-28T11:58:59;6.83;;;6.27;;
17398;SDS011;8817;48.170;8.592;2023-02-28T12:01:40;7.93;;;6.47;;
17398;SDS011;8817;48.170;8.592;2023-02-28T12:04:17;7.80;;;6.73;;
17398;SDS011;8817;48.170;8.592;2023-02-28T12:06:53;8.03;;;7.00;;
17398;SDS011;8817;48.170;8.592;2023-02-28T12:09:30;7.73;;;6.30;;
17398;SDS011;8817;48.170;8.592;2023-02-28T12:12:11;6.93;;;6.23;;
17398;SDS011;8817;48.170;8.592;2023-02-28T12:14:55;11.30;;;6.63;;
17398;SDS011;8817;48.170;8.592;2023-02-28T12:17:43;7.13;;;6.47;;
17398;SDS011;8817;48.170;8.592;2023-02-28T12:20:25;7.30;;;6.60;;
17398;SDS011;8817;48.170;8.592;2023-02-28T12:23:15;7.43;;;6.73;;
17398;SDS011;8817;48.170;8.592;2023-02-28T12:26:00;10.63;;;6.20;;
17398;SDS011;8817;48.170;8.592;2023-02-28T12:28:36;8.07;;;6.80;;
17398;SDS011;8817;48.170;8.592;2023-02-28T12:31:08;7.93;;;6.87;;
17398;SDS011;8817;48.170;8.592;2023-02-28T12:33:40;7.10;;;6.37;;
17398;SDS011;8817;48.170;8.592;2023-02-28T12:36:13;8.23;;;7.43;;
17398;SDS011;8817;48.170;8.592;2023-02-28T12:38:44;9.60;;;6.50;;
17398;SDS011;8817;48.170;8.592;2023-02-28T12:41:14;7.63;;;6.87;;
17398;SDS011;8817;48.170;8.592;2023-02-28T12:43:48;8.87;;;7.27;;
17398;SDS011;8817;48.170;8.592;2023-02-28T12:46:22;8.53;;;7.10;;
17398;SDS011;8817;48.170;8.592;2023-02-28T12:48:55;8.17;;;6.73;;
17398;SDS011;8817;48.170;8.592;2023-02-28T12:51:24;6.70;;;6.00;;
17398;SDS011;8817;48.170;8.592;2023-02-28T12:53:54;7.40;;;6.57;;
17398;SDS011;8817;48.170;8.592;2023-02-28T12:56:31;7.43;;;6.10;;
17398;SDS011;8817;48.170;8.592;2023-02-28T12:59:05;9.87;;;7.03;;
17398;SDS011;8817;48.170;8.592;2023-02-28T13:01:45;9.17;;;7.13;;
17398;SDS011;8817;48.170;8.592;2023-02-28T13:04:31;9.17;;;6.63;;
17398;SDS011;8817;48.170;8.592;2023-02-28T13:07:32;8.40;;;6.83;;
17398;SDS011;8817;48.170;8.592;2023-02-28T13:10:12;6.50;;;6.00;;
17398;SDS011;8817;48.170;8.592;2023-02-28T13:12:46;7.40;;;6.63;;
17398;SDS011;8817;48.170;8.592;2023-02-28T13:15:18;8.07;;;7.00;;
17398;SDS011;8817;48.170;8.592;2023-02-28T13:17:49;10.17;;;7.17;;
17398;SDS011;8817;48.170;8.592;2023-02-28T13:20:18;8.30;;;6.90;;
17398;SDS011;8817;48.170;8.592;2023-02-28T13:22:47;11.27;;;7.17;;
17398;SDS011;8817;48.170;8.592;2023-02-28T13:31:33;7.33;;;6.63;;
17398;SDS011;8817;48.170;8.592;2023-02-28T13:34:42;8.33;;;6.80;;
17398;SDS011;8817;48.170;8.592;2023-02-28T13:37:35;8.03;;;6.83;;
17398;SDS011;8817;48.170;8.592;2023-02-28T13:40:27;10.40;;;7.00;;
17398;SDS011;8817;48.170;8.592;2023-02-28T13:43:01;8.47;;;6.83;;
17398;SDS011;8817;48.170;8.592;2023-02-28T13:45:29;9.23;;;6.90;;
17398;SDS011;8817;48.170;8.592;2023-02-28T13:48:03;7.90;;;6.67;;
17398;SDS011;8817;48.170;8.592;2023-02-28T13:50:32;6.90;;;6.23;;
17398;SDS011;8817;48.170;8.592;2023-02-28T13:56:01;8.23;;;6.77;;
17398;SDS011;8817;48.170;8.592;2023-02-28T13:58:37;7.73;;;6.10;;
17398;SDS011;8817;48.170;8.592;2023-02-28T14:01:14;9.37;;;7.03;;
17398;SDS011;8817;48.170;8.592;2023-02-28T14:07:03;7.93;;;6.80;;
17398;SDS011;8817;48.170;8.592;2023-02-28T14:09:32;10.00;;;7.00;;
17398;SDS011;8817;48.170;8.592;2023-02-28T14:15:01;9.83;;;7.37;;
17398;SDS011;8817;48.170;8.592;2023-02-28T14:17:28;10.03;;;7.50;;
17398;SDS011;8817;48.170;8.592;2023-02-28T14:19:56;9.87;;;7.10;;
17398;SDS011;8817;48.170;8.592;2023-02-28T14:22:47;9.67;;;7.17;;
17398;SDS011;8817;48.170;8.592;2023-02-28T14:25:25;12.10;;;7.47;;
17398;SDS011;8817;48.170;8.592;2023-02-28T14:28:03;7.70;;;6.90;;
17398;SDS011;8817;48.170;8.592;2023-02-28T14:30:57;8.80;;;7.07;;
17398;SDS011;8817;48.170;8.592;2023-02-28T14:33:31;9.30;;;7.23;;
17398;SDS011;8817;48.170;8.592;2023-02-28T14:36:10;9.67;;;7.50;;
17398;SDS011;8817;48.170;8.592;2023-02-28T14:38:43;8.97;;;7.17;;
17398;SDS011;8817;48.170;8.592;2023-02-28T14:41:18;8.70;;;7.17;;
17398;SDS011;8817;48.170;8.592;2023-02-28T14:43:53;13.07;;;7.37;;
17398;SDS011;8817;48.170;8.592;2023-02-28T14:46:22;8.43;;;7.17;;
17398;SDS011;8817;48.170;8.592;2023-02-28T14:48:53;10.70;;;7.60;;
17398;SDS011;8817;48.170;8.592;2023-02-28T14:51:21;9.10;;;7.50;;
17398;SDS011;8817;48.170;8.592;2023-02-28T14:53:51;7.97;;;7.10;;
17398;SDS011;8817;48.170;8.592;2023-02-28T14:56:24;11.50;;;7.67;;
17398;SDS011;8817;48.170;8.592;2023-02-28T14:58:55;10.17;;;7.00;;
17398;SDS011;8817;48.170;8.592;2023-02-28T15:01:23;9.63;;;7.57;;
17398;SDS011;8817;48.170;8.592;2023-02-28T15:03:59;10.37;;;7.53;;
17398;SDS011;8817;48.170;8.592;2023-02-28T15:06:27;8.60;;;7.37;;
17398;SDS011;8817;48.170;8.592;2023-02-28T15:11:41;9.30;;;7.57;;
17398;SDS011;8817;48.170;8.592;2023-02-28T15:14:14;13.43;;;8.23;;
17398;SDS011;8817;48.170;8.592;2023-02-28T15:16:45;10.27;;;7.40;;
17398;SDS011;8817;48.170;8.592;2023-02-28T15:19:18;11.30;;;8.27;;
17398;SDS011;8817;48.170;8.592;2023-02-28T15:21:48;12.27;;;8.10;;
17398;SDS011;8817;48.170;8.592;2023-02-28T15:24:18;10.10;;;7.57;;
17398;SDS011;8817;48.170;8.592;2023-02-28T15:26:52;10.13;;;7.47;;
17398;SDS011;8817;48.170;8.592;2023-02-28T15:29:23;13.50;;;8.17;;
17398;SDS011;8817;48.170;8.592;2023-02-28T15:31:55;11.27;;;7.93;;
17398;SDS011;8817;48.170;8.592;2023-02-28T15:34:26;9.33;;;7.70;;
17398;SDS011;8817;48.170;8.592;2023-02-28T15:36:59;10.63;;;7.50;;
17398;SDS011;8817;48.170;8.592;2023-02-28T15:39:27;11.30;;;7.38;;
17398;SDS011;8817;48.170;8.592;2023-02-28T15:44:39;10.77;;;7.68;;
17398;SDS011;8817;48.170;8.592;2023-02-28T15:47:06;10.35;;;7.70;;
17398;SDS011;8817;48.170;8.592;2023-02-28T15:49:44;9.65;;;7.50;;
17398;SDS011;8817;48.170;8.592;2023-02-28T15:52:15;11.40;;;8.02;;
17398;SDS011;8817;48.170;8.592;2023-02-28T15:54:44;12.05;;;7.72;;
17398;SDS011;8817;48.170;8.592;2023-02-28T15:57:15;11.50;;;7.35;;
17398;SDS011;8817;48.170;8.592;2023-02-28T15:59:49;10.40;;;7.63;;
17398;SDS011;8817;48.170;8.592;2023-02-28T16:02:19;9.73;;;7.15;;
17398;SDS011;8817;48.170;8.592;2023-02-28T16:05:00;10.35;;;7.50;;